createdAt,value
2022-09-16T00:00:27.239Z,19.11
2022-09-16T00:02:54.854Z,19.09
2022-09-16T00:05:21.922Z,18.82
2022-09-16T00:07:48.622Z,18.92
2022-09-16T00:11:04.513Z,19.00
2022-09-16T00:13:31.554Z,18.76
2022-09-16T00:15:58.202Z,19.07
2022-09-16T00:18:25.306Z,18.92
2022-09-16T00:20:55.122Z,19.07
2022-09-16T00:23:21.921Z,19.00
2022-09-16T00:25:53.029Z,19.09
2022-09-16T00:28:21.776Z,19.17
2022-09-16T00:30:49.763Z,19.21
2022-09-16T00:33:16.761Z,18.63
2022-09-16T00:35:43.474Z,18.53
2022-09-16T00:38:10.276Z,18.58
2022-09-16T00:40:47.314Z,18.38
2022-09-16T00:43:18.745Z,18.21
2022-09-16T00:45:57.619Z,18.23
2022-09-16T00:48:26.649Z,17.96
2022-09-16T00:51:00.711Z,17.89
2022-09-16T00:53:31.865Z,18.02
2022-09-16T00:56:00.160Z,17.82
2022-09-16T00:58:43.183Z,17.93
2022-09-16T01:01:10.236Z,18.17
2022-09-16T01:03:50.246Z,17.84
2022-09-16T01:06:18.773Z,18.39
2022-09-16T01:08:45.748Z,18.12
2022-09-16T01:11:12.440Z,18.13
2022-09-16T01:13:40.241Z,18.14
2022-09-16T01:16:11.256Z,18.05
2022-09-16T01:19:16.528Z,17.90
2022-09-16T01:21:51.107Z,18.10
2022-09-16T01:24:33.014Z,18.28
2022-09-16T01:27:37.284Z,17.76
2022-09-16T01:30:12.635Z,17.90
2022-09-16T01:33:01.458Z,17.97
2022-09-16T01:35:28.141Z,17.68
2022-09-16T01:38:09.797Z,17.84
2022-09-16T01:41:03.741Z,17.59
2022-09-16T01:43:40.763Z,17.16
2022-09-16T01:46:21.766Z,17.35
2022-09-16T01:48:57.295Z,17.42
2022-09-16T01:51:46.008Z,17.55
2022-09-16T01:54:35.126Z,17.62
2022-09-16T01:57:12.155Z,17.32
2022-09-16T01:59:48.732Z,17.39
2022-09-16T02:02:20.444Z,17.35
2022-09-16T02:04:51.409Z,17.25
2022-09-16T02:07:20.721Z,17.51
2022-09-16T02:09:58.553Z,17.19
2022-09-16T02:12:29.694Z,17.60
2022-09-16T02:15:01.644Z,17.37
2022-09-16T02:17:30.557Z,17.50
2022-09-16T02:20:01.437Z,17.57
2022-09-16T02:22:41.028Z,17.74
2022-09-16T02:25:08.931Z,17.82
2022-09-16T02:27:36.849Z,17.47
2022-09-16T02:30:07.745Z,17.15
2022-09-16T02:32:37.521Z,17.56
2022-09-16T02:35:06.420Z,17.87
2022-09-16T02:37:35.395Z,17.87
2022-09-16T02:40:10.648Z,18.38
2022-09-16T02:42:37.450Z,18.29
2022-09-16T02:45:05.429Z,18.28
2022-09-16T02:47:31.997Z,18.19
2022-09-16T02:50:40.464Z,18.32
2022-09-16T02:53:33.178Z,18.30
2022-09-16T02:56:03.343Z,17.81
2022-09-16T02:58:30.220Z,18.10
2022-09-16T03:00:58.291Z,17.76
2022-09-16T03:03:25.325Z,17.78
2022-09-16T03:06:18.422Z,17.84
2022-09-16T03:08:45.722Z,18.17
2022-09-16T03:11:30.680Z,18.24
2022-09-16T03:14:15.871Z,17.62
2022-09-16T03:17:05.214Z,18.19
2022-09-16T03:19:35.471Z,18.12
2022-09-16T03:22:03.250Z,18.00
2022-09-16T03:24:50.038Z,17.98
2022-09-16T03:27:26.511Z,17.65
2022-09-16T03:29:57.882Z,17.61
2022-09-16T03:32:28.305Z,17.37
2022-09-16T03:35:01.132Z,17.56
2022-09-16T03:37:29.786Z,17.94
2022-09-16T03:39:58.826Z,18.02
2022-09-16T03:42:26.212Z,17.76
2022-09-16T03:44:53.623Z,18.01
2022-09-16T03:47:20.328Z,18.02
2022-09-16T03:49:47.090Z,18.02
2022-09-16T03:52:13.744Z,18.01
2022-09-16T03:54:40.503Z,18.02
2022-09-16T03:57:07.179Z,18.00
2022-09-16T03:59:33.861Z,17.78
2022-09-16T04:02:00.687Z,17.76
2022-09-16T04:04:27.548Z,17.51
2022-09-16T04:06:55.792Z,18.03
2022-09-16T04:09:22.474Z,17.68
2022-09-16T04:11:49.288Z,17.91
2022-09-16T04:14:16.293Z,17.81
2022-09-16T04:16:45.237Z,17.81
2022-09-16T04:19:13.470Z,17.35
2022-09-16T04:21:41.578Z,17.68
2022-09-16T04:24:13.188Z,17.88
2022-09-16T04:26:40.988Z,17.75
2022-09-16T04:29:07.829Z,17.22
2022-09-16T04:31:34.557Z,17.72
2022-09-16T04:34:04.828Z,17.64
2022-09-16T04:36:32.191Z,17.69
2022-09-16T04:38:58.778Z,17.91
2022-09-16T04:41:26.746Z,17.94
2022-09-16T04:43:57.944Z,17.56
2022-09-16T04:46:26.193Z,17.45
2022-09-16T04:48:54.165Z,17.55
2022-09-16T04:51:22.716Z,17.59
2022-09-16T04:53:49.898Z,17.41
2022-09-16T04:56:20.977Z,17.23
2022-09-16T04:58:51.548Z,17.15
2022-09-16T05:01:23.761Z,17.17
2022-09-16T05:03:53.055Z,17.34
2022-09-16T05:06:24.912Z,17.19
2022-09-16T05:08:52.769Z,17.34
2022-09-16T05:11:28.343Z,16.72
2022-09-16T05:13:58.747Z,17.36
2022-09-16T05:16:25.428Z,17.47
2022-09-16T05:18:54.897Z,17.61
2022-09-16T05:21:24.246Z,17.63
2022-09-16T05:23:52.563Z,17.54
2022-09-16T05:26:21.852Z,16.71
2022-09-16T05:28:50.849Z,17.32
2022-09-16T05:31:19.118Z,17.24
2022-09-16T05:33:48.213Z,17.55
2022-09-16T05:36:17.634Z,16.88
2022-09-16T05:38:59.140Z,17.37
2022-09-16T05:41:33.829Z,17.44
2022-09-16T05:44:01.631Z,17.46
2022-09-16T05:46:29.000Z,17.22
2022-09-16T05:48:56.576Z,17.31
2022-09-16T05:51:24.170Z,17.13
2022-09-16T05:53:51.612Z,17.35
2022-09-16T05:56:25.754Z,17.03
2022-09-16T05:58:57.596Z,17.10
2022-09-16T06:01:28.420Z,17.09
2022-09-16T06:03:55.729Z,17.31
2022-09-16T06:06:32.532Z,17.02
2022-09-16T06:09:03.879Z,16.76
2022-09-16T06:11:30.683Z,17.24
2022-09-16T06:14:00.133Z,16.73
2022-09-16T06:16:28.063Z,17.29
2022-09-16T06:18:55.687Z,17.17
2022-09-16T06:21:23.108Z,16.48
2022-09-16T06:23:49.748Z,16.20
2022-09-16T06:26:19.138Z,16.39
2022-09-16T06:28:46.923Z,16.89
2022-09-16T06:31:16.034Z,16.85
2022-09-16T06:33:43.297Z,16.92
2022-09-16T06:36:12.547Z,17.10
2022-09-16T06:38:39.259Z,17.08
2022-09-16T06:41:08.806Z,16.95
2022-09-16T06:43:36.505Z,17.22
2022-09-16T06:46:16.260Z,17.33
2022-09-16T06:48:47.567Z,17.31
2022-09-16T06:51:18.675Z,17.41
2022-09-16T06:53:46.954Z,17.35
2022-09-16T06:56:17.202Z,17.24
2022-09-16T06:58:48.115Z,17.42
2022-09-16T07:01:20.339Z,17.52
2022-09-16T07:03:49.307Z,17.14
2022-09-16T07:06:17.270Z,17.37
2022-09-16T07:08:44.347Z,17.35
2022-09-16T07:11:19.010Z,17.47
2022-09-16T07:13:49.304Z,17.21
2022-09-16T07:16:18.850Z,16.33
2022-09-16T07:18:46.972Z,17.14
2022-09-16T07:21:18.468Z,17.22
2022-09-16T07:23:45.980Z,17.42
2022-09-16T07:26:23.236Z,17.27
2022-09-16T07:28:50.733Z,17.32
2022-09-16T07:31:19.837Z,17.04
2022-09-16T07:33:48.866Z,17.21
2022-09-16T07:36:18.652Z,17.28
2022-09-16T07:38:45.813Z,17.56
2022-09-16T07:41:21.683Z,17.21
2022-09-16T07:43:49.240Z,17.19
2022-09-16T07:46:17.637Z,17.35
2022-09-16T07:48:46.258Z,16.53
2022-09-16T07:51:21.737Z,16.68
2022-09-16T07:54:03.536Z,16.75
2022-09-16T07:56:34.815Z,16.82
2022-09-16T07:59:03.511Z,17.57
2022-09-16T08:01:31.513Z,17.87
2022-09-16T08:03:58.632Z,17.88
2022-09-16T08:06:27.553Z,17.61
2022-09-16T08:08:59.795Z,17.85
2022-09-16T08:11:32.545Z,17.89
2022-09-16T08:14:00.000Z,17.63
2022-09-16T08:16:26.999Z,17.56
2022-09-16T08:18:55.553Z,17.14
2022-09-16T08:21:24.660Z,17.30
2022-09-16T08:23:52.394Z,17.29
2022-09-16T08:26:19.944Z,17.59
2022-09-16T08:29:07.937Z,17.98
2022-09-16T08:31:35.681Z,18.06
2022-09-16T08:34:02.657Z,18.07
2022-09-16T08:36:31.508Z,17.92
2022-09-16T08:38:58.260Z,18.28
2022-09-16T08:41:45.293Z,18.06
2022-09-16T08:44:15.015Z,18.01
2022-09-16T08:46:59.887Z,18.35
2022-09-16T08:49:46.461Z,18.45
2022-09-16T08:52:32.852Z,18.11
2022-09-16T08:55:08.491Z,18.69
2022-09-16T08:57:40.420Z,18.62
2022-09-16T09:00:13.978Z,18.41
2022-09-16T09:02:56.486Z,18.36
2022-09-16T09:05:41.410Z,17.93
2022-09-16T09:08:36.320Z,17.64
2022-09-16T09:11:41.893Z,17.50
2022-09-16T09:14:33.593Z,17.16
2022-09-16T09:17:12.288Z,17.83
2022-09-16T09:20:01.315Z,17.07
2022-09-16T09:22:54.701Z,17.56
2022-09-16T09:25:27.481Z,17.20
2022-09-16T09:28:13.908Z,17.49
2022-09-16T09:30:47.764Z,17.32
2022-09-16T09:33:44.503Z,17.20
2022-09-16T09:36:33.321Z,17.42
2022-09-16T09:39:12.415Z,17.58
2022-09-16T09:42:03.450Z,18.05
2022-09-16T09:44:46.655Z,18.08
2022-09-16T09:47:27.776Z,18.31
2022-09-16T09:50:02.098Z,18.28
2022-09-16T09:52:39.424Z,18.23
2022-09-16T09:55:21.021Z,18.25
2022-09-16T09:58:02.004Z,18.42
2022-09-16T10:00:28.951Z,18.69
2022-09-16T10:03:04.998Z,18.56
2022-09-16T10:05:32.041Z,18.92
2022-09-16T10:08:03.278Z,18.67
2022-09-16T10:10:34.342Z,18.18
2022-09-16T10:13:11.613Z,18.82
2022-09-16T10:15:39.166Z,19.18
2022-09-16T10:18:13.302Z,19.36
2022-09-16T10:20:43.815Z,19.39
2022-09-16T10:23:16.235Z,19.23
2022-09-16T10:25:43.933Z,19.16
2022-09-16T10:28:36.973Z,19.61
2022-09-16T10:31:07.050Z,19.65
2022-09-16T10:33:36.287Z,19.48
2022-09-16T10:36:06.397Z,19.57
2022-09-16T10:38:37.382Z,18.75
2022-09-16T10:41:26.384Z,18.57
2022-09-16T10:44:16.478Z,17.95
2022-09-16T10:46:58.239Z,18.19
2022-09-16T10:49:35.108Z,18.11
2022-09-16T10:52:10.066Z,18.54
2022-09-16T10:54:36.962Z,19.02
2022-09-16T10:57:03.638Z,18.98
2022-09-16T10:59:30.390Z,19.07
2022-09-16T11:01:57.382Z,18.75
2022-09-16T11:04:30.343Z,18.76
2022-09-16T11:07:06.096Z,18.66
2022-09-16T11:09:55.085Z,18.48
2022-09-16T11:12:46.685Z,18.48
2022-09-16T11:15:25.150Z,18.98
2022-09-16T11:18:09.741Z,18.62
2022-09-16T11:21:01.024Z,18.98
2022-09-16T11:23:41.188Z,19.12
2022-09-16T11:26:16.864Z,18.96
2022-09-16T11:29:25.382Z,19.26
2022-09-16T11:32:15.105Z,18.92
2022-09-16T11:34:55.507Z,18.51
2022-09-16T11:37:39.424Z,17.95
2022-09-16T11:40:15.865Z,18.21
2022-09-16T11:42:46.776Z,18.19
2022-09-16T11:45:28.951Z,18.12
2022-09-16T11:48:38.291Z,18.35
2022-09-16T11:51:51.338Z,18.69
2022-09-16T11:54:40.455Z,18.35
2022-09-16T11:57:17.276Z,18.63
2022-09-16T11:59:50.194Z,18.53
2022-09-16T12:02:48.624Z,19.03
2022-09-16T12:05:20.155Z,19.22
2022-09-16T12:08:29.925Z,18.10
2022-09-16T12:11:02.436Z,18.59
2022-09-16T12:13:53.916Z,18.72
2022-09-16T12:16:38.409Z,19.09
2022-09-16T12:19:17.085Z,18.56
2022-09-16T12:21:58.951Z,18.78
2022-09-16T12:24:42.751Z,18.83
2022-09-16T12:27:34.844Z,19.01
2022-09-16T12:30:17.179Z,18.62
2022-09-16T12:32:57.593Z,18.93
2022-09-16T12:35:29.267Z,18.37
2022-09-16T12:37:57.599Z,17.73
2022-09-16T12:40:26.987Z,17.78
2022-09-16T12:43:06.018Z,17.62
2022-09-16T12:46:07.866Z,17.21
2022-09-16T12:48:47.165Z,16.79
2022-09-16T12:51:32.850Z,16.19
2022-09-16T12:54:41.260Z,16.73
2022-09-16T12:57:59.386Z,16.94
2022-09-16T13:00:49.562Z,17.20
2022-09-16T13:03:22.013Z,17.07
2022-09-16T13:05:50.841Z,16.95
2022-09-16T13:08:24.223Z,17.17
2022-09-16T13:11:47.171Z,17.08
2022-09-16T13:13:57.591Z,17.21
2022-09-16T13:16:33.090Z,17.19
2022-09-16T13:19:08.788Z,16.91
2022-09-16T13:21:41.674Z,17.76
2022-09-16T13:24:31.552Z,18.01
2022-09-16T13:26:58.392Z,17.56
2022-09-16T13:29:26.829Z,17.57
2022-09-16T13:31:53.646Z,16.58
2022-09-16T13:34:21.871Z,17.71
2022-09-16T13:36:48.596Z,17.59
2022-09-16T13:39:28.155Z,16.95
2022-09-16T13:41:55.373Z,17.05
2022-09-16T13:44:38.516Z,17.39
2022-09-16T13:47:11.289Z,17.55
2022-09-16T13:50:08.779Z,17.72
2022-09-16T13:52:36.175Z,17.47
2022-09-16T13:55:10.489Z,17.09
2022-09-16T13:57:50.067Z,17.20
2022-09-16T14:00:36.150Z,17.05
2022-09-16T14:03:18.112Z,17.05
2022-09-16T14:06:12.161Z,16.95
2022-09-16T14:08:38.760Z,16.63
2022-09-16T14:11:25.132Z,16.69
2022-09-16T14:14:05.051Z,16.95
2022-09-16T14:16:34.740Z,17.02
2022-09-16T14:19:08.341Z,17.16
2022-09-16T14:21:35.080Z,17.09
2022-09-16T14:24:19.092Z,16.70
2022-09-16T14:26:57.374Z,17.39
2022-09-16T14:29:27.179Z,17.01
2022-09-16T14:31:55.322Z,17.63
2022-09-16T14:34:27.595Z,17.50
2022-09-16T14:36:54.343Z,17.24
2022-09-16T14:39:23.331Z,17.51
2022-09-16T14:41:59.131Z,17.22
2022-09-16T14:44:33.406Z,17.15
2022-09-16T14:47:09.137Z,17.06
2022-09-16T14:49:40.194Z,17.12
2022-09-16T14:52:18.359Z,16.98
2022-09-16T14:54:45.145Z,17.14
2022-09-16T14:57:19.356Z,16.85
2022-09-16T14:59:46.589Z,16.54
2022-09-16T15:02:26.611Z,16.80
2022-09-16T15:05:02.037Z,16.40
2022-09-16T15:07:34.030Z,16.32
2022-09-16T15:10:08.320Z,16.84
2022-09-16T15:12:48.641Z,16.80
2022-09-16T15:15:27.136Z,17.18
2022-09-16T15:18:05.985Z,17.15
2022-09-16T15:20:34.777Z,17.08
2022-09-16T15:23:02.859Z,17.30
2022-09-16T15:25:34.687Z,17.02
2022-09-16T15:28:16.036Z,16.97
2022-09-16T15:30:54.173Z,17.24
2022-09-16T15:33:35.322Z,17.52
2022-09-16T15:36:03.483Z,17.69
2022-09-16T15:38:31.390Z,17.41
2022-09-16T15:41:05.737Z,17.11
2022-09-16T15:43:40.597Z,17.17
2022-09-16T15:46:16.302Z,17.30
2022-09-16T15:48:45.426Z,17.41
2022-09-16T15:51:35.333Z,17.32
2022-09-16T15:54:07.857Z,17.30
2022-09-16T15:56:43.952Z,16.97
2022-09-16T15:59:31.694Z,16.91
2022-09-16T16:02:01.043Z,16.99
2022-09-16T16:04:30.643Z,17.25
2022-09-16T16:06:59.891Z,17.27
2022-09-16T16:09:30.421Z,17.04
2022-09-16T16:12:04.999Z,16.90
2022-09-16T16:14:32.773Z,17.27
2022-09-16T16:17:13.574Z,17.25
2022-09-16T16:19:46.207Z,16.96
2022-09-16T16:22:13.631Z,17.04
2022-09-16T16:24:40.483Z,16.65
2022-09-16T16:27:08.561Z,16.34
2022-09-16T16:29:35.684Z,16.53
2022-09-16T16:32:10.505Z,16.67
2022-09-16T16:34:47.769Z,16.91
2022-09-16T16:37:40.161Z,16.52
2022-09-16T16:40:05.867Z,16.47
2022-09-16T16:42:44.418Z,16.01
2022-09-16T16:45:14.778Z,16.17
2022-09-16T16:47:42.467Z,16.47
2022-09-16T16:50:10.448Z,16.29
2022-09-16T16:52:37.718Z,16.28
2022-09-16T16:55:05.385Z,16.01
2022-09-16T16:57:32.115Z,16.31
2022-09-16T16:59:58.845Z,16.36
2022-09-16T17:02:28.413Z,15.89
2022-09-16T17:04:55.781Z,15.97
2022-09-16T17:07:29.934Z,15.93
2022-09-16T17:09:59.629Z,15.84
2022-09-16T17:12:27.008Z,15.59
2022-09-16T17:14:53.844Z,15.57
2022-09-16T17:17:26.372Z,15.54
2022-09-16T17:19:55.722Z,15.77
2022-09-16T17:22:23.030Z,15.93
2022-09-16T17:24:54.966Z,15.90
2022-09-16T17:27:27.064Z,15.89
2022-09-16T17:29:57.151Z,15.82
2022-09-16T17:32:24.231Z,15.54
2022-09-16T17:34:50.865Z,15.88
2022-09-16T17:37:25.325Z,15.57
2022-09-16T17:39:52.031Z,15.53
2022-09-16T17:42:18.872Z,15.77
2022-09-16T17:44:45.577Z,15.74
2022-09-16T17:47:12.592Z,15.33
2022-09-16T17:49:39.315Z,15.36
2022-09-16T17:52:05.941Z,15.27
2022-09-16T17:54:32.645Z,15.52
2022-09-16T17:56:59.451Z,15.13
2022-09-16T17:59:26.212Z,15.45
2022-09-16T18:01:53.005Z,15.67
2022-09-16T18:04:19.753Z,15.87
2022-09-16T18:06:47.095Z,15.90
2022-09-16T18:09:14.376Z,15.76
2022-09-16T18:11:41.339Z,15.74
2022-09-16T18:14:10.866Z,15.73
2022-09-16T18:16:38.034Z,15.81
2022-09-16T18:19:06.045Z,15.90
2022-09-16T18:21:33.847Z,15.98
2022-09-16T18:24:02.738Z,15.84
2022-09-16T18:26:30.780Z,16.12
2022-09-16T18:29:18.981Z,15.68
2022-09-16T18:31:47.814Z,15.63
2022-09-16T18:34:15.495Z,15.61
2022-09-16T18:36:42.563Z,15.74
2022-09-16T18:39:14.765Z,15.83
2022-09-16T18:41:42.883Z,15.27
2022-09-16T18:44:21.352Z,15.16
2022-09-16T18:46:48.151Z,15.18
2022-09-16T18:49:16.309Z,15.30
2022-09-16T18:51:49.862Z,14.87
2022-09-16T18:54:28.209Z,14.90
2022-09-16T18:56:59.890Z,14.75
2022-09-16T18:59:29.953Z,15.13
2022-09-16T19:01:59.360Z,14.99
2022-09-16T19:04:32.897Z,15.09
2022-09-16T19:07:07.642Z,15.33
2022-09-16T19:09:36.211Z,15.17
2022-09-16T19:12:03.630Z,14.26
2022-09-16T19:14:30.755Z,14.62
2022-09-16T19:16:57.452Z,14.31
2022-09-16T19:19:24.132Z,14.08
2022-09-16T19:21:50.971Z,13.94
2022-09-16T19:24:20.512Z,14.38
2022-09-16T19:26:48.067Z,13.97
2022-09-16T19:29:15.863Z,13.90
2022-09-16T19:31:44.141Z,14.29
2022-09-16T19:34:11.676Z,14.09
2022-09-16T19:36:39.498Z,14.25
2022-09-16T19:39:07.249Z,14.95
2022-09-16T19:41:36.248Z,15.25
2022-09-16T19:44:05.059Z,14.89
2022-09-16T19:46:34.815Z,14.83
2022-09-16T19:49:02.159Z,15.00
2022-09-16T19:51:29.221Z,14.78
2022-09-16T19:53:56.429Z,14.75
2022-09-16T19:56:25.919Z,14.64
2022-09-16T19:58:54.062Z,14.44
2022-09-16T20:01:30.414Z,14.80
2022-09-16T20:03:57.295Z,15.14
2022-09-16T20:06:33.062Z,14.25
2022-09-16T20:09:01.092Z,14.81
2022-09-16T20:11:31.543Z,14.64
2022-09-16T20:14:02.063Z,14.94
2022-09-16T20:16:32.088Z,15.16
2022-09-16T20:18:58.996Z,15.31
2022-09-16T20:21:26.800Z,15.03
2022-09-16T20:23:54.470Z,14.80
2022-09-16T20:26:22.144Z,14.94
2022-09-16T20:28:54.504Z,14.57
2022-09-16T20:31:23.574Z,14.76
2022-09-16T20:33:51.530Z,15.34
2022-09-16T20:36:20.612Z,14.89
2022-09-16T20:38:49.948Z,14.67
2022-09-16T20:41:25.450Z,15.18
2022-09-16T20:43:53.130Z,14.90
2022-09-16T20:46:22.379Z,15.33
2022-09-16T20:48:49.919Z,14.87
2022-09-16T20:51:19.366Z,14.81
2022-09-16T20:54:08.133Z,14.99
2022-09-16T20:56:40.092Z,15.49
2022-09-16T20:59:08.916Z,15.10
2022-09-16T21:01:37.429Z,14.44
2022-09-16T21:04:06.840Z,14.88
2022-09-16T21:06:35.028Z,14.73
2022-09-16T21:09:05.523Z,14.57
2022-09-16T21:11:33.212Z,15.04
2022-09-16T21:14:01.992Z,15.07
2022-09-16T21:16:31.561Z,14.65
2022-09-16T21:19:00.832Z,14.79
2022-09-16T21:21:28.629Z,14.45
2022-09-16T21:23:57.850Z,14.86
2022-09-16T21:26:28.679Z,15.22
2022-09-16T21:28:57.896Z,14.90
2022-09-16T21:31:26.441Z,14.92
2022-09-16T21:33:54.633Z,14.59
2022-09-16T21:36:24.413Z,14.35
2022-09-16T21:38:51.846Z,14.87
2022-09-16T21:41:21.346Z,14.52
2022-09-16T21:43:50.815Z,14.43
2022-09-16T21:46:23.120Z,14.44
2022-09-16T21:48:50.494Z,14.35
2022-09-16T21:51:19.294Z,14.69
2022-09-16T21:53:46.780Z,14.90
2022-09-16T21:56:16.249Z,15.02
2022-09-16T21:58:43.354Z,14.88
2022-09-16T22:01:19.075Z,14.93
2022-09-16T22:03:48.154Z,15.13
2022-09-16T22:06:18.420Z,15.15
2022-09-16T22:08:49.308Z,15.22
2022-09-16T22:11:18.346Z,14.48
2022-09-16T22:13:45.457Z,14.71
2022-09-16T22:16:13.992Z,14.79
2022-09-16T22:18:40.855Z,14.22
2022-09-16T22:21:08.844Z,14.38
2022-09-16T22:23:37.287Z,14.85
2022-09-16T22:26:06.181Z,15.19
2022-09-16T22:28:33.526Z,15.24
2022-09-16T22:31:10.745Z,15.10
2022-09-16T22:33:39.325Z,15.33
2022-09-16T22:36:08.281Z,15.50
2022-09-16T22:38:35.498Z,15.18
2022-09-16T22:41:07.286Z,15.17
2022-09-16T22:43:41.409Z,15.06
2022-09-16T22:46:14.708Z,15.08
2022-09-16T22:48:42.277Z,15.06
2022-09-16T22:51:10.641Z,15.23
2022-09-16T22:53:37.689Z,14.99
2022-09-16T22:56:10.155Z,14.55
2022-09-16T22:58:36.889Z,15.08
2022-09-16T23:01:03.503Z,15.09
2022-09-16T23:03:30.614Z,15.06
2022-09-16T23:05:58.822Z,14.43
2022-09-16T23:08:26.087Z,14.74
2022-09-16T23:10:53.076Z,14.98
2022-09-16T23:13:21.747Z,14.85
2022-09-16T23:15:53.595Z,14.78
2022-09-16T23:18:21.177Z,14.83
2022-09-16T23:20:57.872Z,14.91
2022-09-16T23:23:25.095Z,14.02
2022-09-16T23:25:52.196Z,14.84
2022-09-16T23:28:18.800Z,14.38
2022-09-16T23:30:45.940Z,14.45
2022-09-16T23:33:12.641Z,14.34
2022-09-16T23:35:39.433Z,14.00
2022-09-16T23:38:06.161Z,14.34
2022-09-16T23:40:36.879Z,14.36
2022-09-16T23:43:03.493Z,13.88
2022-09-16T23:45:30.165Z,14.05
2022-09-16T23:47:56.913Z,14.12
2022-09-16T23:50:23.518Z,13.87
2022-09-16T23:52:50.246Z,14.11
2022-09-16T23:55:16.938Z,14.10
2022-09-16T23:57:43.598Z,14.27
